Frederikshaab, Greenland
Current Conditions -  °F | °C
As of 2:50 PM on Saturday 20 Dec 2014 (Local Time) from BGBW Reporting Station
Few Clouds Few Clouds  
Wind Chill: -11°   Ceiling: Unl
Heat Index:   Visibility: 6mi
Dew Point: -17°   Wind: 7mph
Humidity: 43%   Direction: 70°ENE
Pressure: 29.29"   Gusts: NA
Location:  61.99°N, 49.66°W
Report Text: BGBW 201650Z 07006KT 9999 FEW040 M17/M27 Q0992
Loading
Personal Weather Stations






























Interactive Weather Map New forecast layout! Learn more

10-Day Weather Forecast

Advertisements
Track Severe Weather on mobile